sensor_id;sensor_type;location;lat;lon;timestamp;pressure;altitude;pressure_sealevel;temperature;humidity
52797;BME280;38666;43.348;12.584;2023-02-22T06:53:57;95929.44;;;7.88;100.00
52797;BME280;38666;43.348;12.584;2023-02-22T06:56:23;95931.84;;;7.97;100.00
52797;BME280;38666;43.348;12.584;2023-02-22T06:58:48;95928.81;;;8.10;100.00
52797;BME280;38666;43.348;12.584;2023-02-22T07:01:14;95930.38;;;8.11;100.00
52797;BME280;38666;43.348;12.584;2023-02-22T07:03:40;95928.47;;;8.15;100.00
52797;BME280;38666;43.348;12.584;2023-02-22T07:06:07;95932.03;;;8.26;100.00
52797;BME280;38666;43.348;12.584;2023-02-22T07:08:33;95933.69;;;8.38;100.00
52797;BME280;38666;43.348;12.584;2023-02-22T07:10:58;95931.34;;;8.44;100.00
52797;BME280;38666;43.348;12.584;2023-02-22T07:13:24;95933.38;;;8.54;99.21
52797;BME280;38666;43.348;12.584;2023-02-22T07:15:49;95936.16;;;8.58;98.33
52797;BME280;38666;43.348;12.584;2023-02-22T07:18:15;95931.13;;;8.64;98.71
52797;BME280;38666;43.348;12.584;2023-02-22T07:20:41;95937.72;;;8.59;96.81
52797;BME280;38666;43.348;12.584;2023-02-22T07:23:07;95940.06;;;8.64;96.61
52797;BME280;38666;43.348;12.584;2023-02-22T07:25:32;95944.75;;;8.67;96.34
52797;BME280;38666;43.348;12.584;2023-02-22T07:27:58;95934.19;;;8.59;94.30
52797;BME280;38666;43.348;12.584;2023-02-22T07:30:29;95940.06;;;8.64;95.40
52797;BME280;38666;43.348;12.584;2023-02-22T07:32:56;95938.91;;;8.62;95.13
52797;BME280;38666;43.348;12.584;2023-02-22T07:37:49;95943.97;;;8.63;93.88
52797;BME280;38666;43.348;12.584;2023-02-22T07:40:16;95939.28;;;8.64;95.70
52797;BME280;38666;43.348;12.584;2023-02-22T07:43:04;95936.97;;;8.66;94.63
52797;BME280;38666;43.348;12.584;2023-02-22T07:45:34;95931.44;;;8.55;95.53
52797;BME280;38666;43.348;12.584;2023-02-22T07:48:01;95934.91;;;8.52;96.88
52797;BME280;38666;43.348;12.584;2023-02-22T07:50:28;95941.06;;;8.38;95.65
52797;BME280;38666;43.348;12.584;2023-02-22T07:52:56;95940.25;;;8.37;96.29
52797;BME280;38666;43.348;12.584;2023-02-22T07:55:25;95939.16;;;8.42;96.10
52797;BME280;38666;43.348;12.584;2023-02-22T07:57:54;95936.84;;;8.51;96.53
52797;BME280;38666;43.348;12.584;2023-02-22T08:02:50;95940.50;;;8.70;96.82
52797;BME280;38666;43.348;12.584;2023-02-22T08:05:17;95937.38;;;8.68;95.03
52797;BME280;38666;43.348;12.584;2023-02-22T08:07:42;95937.00;;;8.73;95.34
52797;BME280;38666;43.348;12.584;2023-02-22T08:10:17;95939.03;;;8.91;94.34
52797;BME280;38666;43.348;12.584;2023-02-22T08:12:42;95939.06;;;8.95;93.86
52797;BME280;38666;43.348;12.584;2023-02-22T08:15:15;95931.59;;;8.81;94.10
52797;BME280;38666;43.348;12.584;2023-02-22T08:17:40;95934.66;;;8.68;95.19
52797;BME280;38666;43.348;12.584;2023-02-22T08:20:06;95937.41;;;8.72;95.75
52797;BME280;38666;43.348;12.584;2023-02-22T08:22:31;95940.16;;;8.79;93.97
52797;BME280;38666;43.348;12.584;2023-02-22T08:24:57;95946.41;;;8.87;93.81
52797;BME280;38666;43.348;12.584;2023-02-22T08:27:24;95935.19;;;9.03;93.56
52797;BME280;38666;43.348;12.584;2023-02-22T08:29:50;95933.25;;;9.07;92.19
52797;BME280;38666;43.348;12.584;2023-02-22T08:32:15;95940.25;;;8.97;91.87
52797;BME280;38666;43.348;12.584;2023-02-22T08:34:42;95939.41;;;8.86;93.06
52797;BME280;38666;43.348;12.584;2023-02-22T08:37:07;95943.34;;;8.92;94.04
52797;BME280;38666;43.348;12.584;2023-02-22T08:39:33;95941.41;;;9.03;94.29
52797;BME280;38666;43.348;12.584;2023-02-22T08:41:58;95944.13;;;8.96;91.42
52797;BME280;38666;43.348;12.584;2023-02-22T08:44:24;95935.59;;;9.09;91.88
52797;BME280;38666;43.348;12.584;2023-02-22T08:46:49;95942.28;;;9.22;91.73
52797;BME280;38666;43.348;12.584;2023-02-22T08:49:16;95938.84;;;9.58;89.25
52797;BME280;38666;43.348;12.584;2023-02-22T08:51:41;95945.41;;;9.32;88.83
52797;BME280;38666;43.348;12.584;2023-02-22T08:54:07;95945.78;;;9.26;90.66
52797;BME280;38666;43.348;12.584;2023-02-22T08:56:32;95947.34;;;9.27;89.98
52797;BME280;38666;43.348;12.584;2023-02-22T08:58:58;95942.66;;;9.28;89.65
52797;BME280;38666;43.348;12.584;2023-02-22T09:01:23;95948.19;;;9.46;89.08
52797;BME280;38666;43.348;12.584;2023-02-22T09:03:50;95955.97;;;9.51;89.36
52797;BME280;38666;43.348;12.584;2023-02-22T09:06:17;95945.78;;;9.26;90.92
52797;BME280;38666;43.348;12.584;2023-02-22T09:08:42;95948.47;;;9.19;91.13
52797;BME280;38666;43.348;12.584;2023-02-22T09:11:07;95947.72;;;9.30;91.48
52797;BME280;38666;43.348;12.584;2023-02-22T09:13:33;95947.66;;;9.00;91.62
52797;BME280;38666;43.348;12.584;2023-02-22T09:15:58;95939.50;;;9.04;91.44
52797;BME280;38666;43.348;12.584;2023-02-22T09:18:26;95942.25;;;9.15;92.24
52797;BME280;38666;43.348;12.584;2023-02-22T09:20:53;95939.16;;;9.20;90.71
52797;BME280;38666;43.348;12.584;2023-02-22T09:23:19;95943.94;;;9.71;89.24
52797;BME280;38666;43.348;12.584;2023-02-22T09:25:46;95940.06;;;10.19;86.10
52797;BME280;38666;43.348;12.584;2023-02-22T09:28:12;95939.66;;;10.54;84.21
52797;BME280;38666;43.348;12.584;2023-02-22T09:30:38;95938.13;;;10.23;81.99
52797;BME280;38666;43.348;12.584;2023-02-22T09:33:07;95938.09;;;10.53;81.04
52797;BME280;38666;43.348;12.584;2023-02-22T09:35:39;95929.53;;;10.29;84.10
52797;BME280;38666;43.348;12.584;2023-02-22T09:38:12;95935.38;;;10.49;82.82
52797;BME280;38666;43.348;12.584;2023-02-22T09:40:47;95931.06;;;10.59;82.03
52797;BME280;38666;43.348;12.584;2023-02-22T09:45:53;95930.09;;;11.13;79.06
52797;BME280;38666;43.348;12.584;2023-02-22T09:48:22;95922.84;;;10.74;80.56
52797;BME280;38666;43.348;12.584;2023-02-22T09:50:51;95923.19;;;10.83;80.21
52797;BME280;38666;43.348;12.584;2023-02-22T09:56:00;95929.66;;;11.22;78.23
52797;BME280;38666;43.348;12.584;2023-02-22T09:58:40;95922.72;;;11.78;75.41
52797;BME280;38666;43.348;12.584;2023-02-22T10:01:32;95912.06;;;12.40;72.82
52797;BME280;38666;43.348;12.584;2023-02-22T10:04:18;95910.75;;;11.57;75.16
52797;BME280;38666;43.348;12.584;2023-02-22T10:06:58;95907.47;;;11.80;75.00
52797;BME280;38666;43.348;12.584;2023-02-22T10:09:34;95901.06;;;12.83;70.58
52797;BME280;38666;43.348;12.584;2023-02-22T10:12:15;95906.00;;;12.95;66.75
52797;BME280;38666;43.348;12.584;2023-02-22T10:15:32;95893.56;;;13.18;68.48
52797;BME280;38666;43.348;12.584;2023-02-22T10:23:37;95898.75;;;14.43;62.00
52797;BME280;38666;43.348;12.584;2023-02-22T10:26:24;95900.81;;;14.60;58.59
52797;BME280;38666;43.348;12.584;2023-02-22T10:31:37;95889.97;;;14.52;61.56
52797;BME280;38666;43.348;12.584;2023-02-22T10:34:11;95889.03;;;13.91;61.53
52797;BME280;38666;43.348;12.584;2023-02-22T10:36:38;95891.91;;;13.56;63.41
52797;BME280;38666;43.348;12.584;2023-02-22T10:39:26;95888.38;;;13.55;63.43
52797;BME280;38666;43.348;12.584;2023-02-22T10:41:55;95884.97;;;13.75;62.46
52797;BME280;38666;43.348;12.584;2023-02-22T10:44:22;95878.47;;;14.57;58.57
52797;BME280;38666;43.348;12.584;2023-02-22T10:46:47;95879.53;;;14.64;56.57
52797;BME280;38666;43.348;12.584;2023-02-22T10:49:21;95873.19;;;14.47;55.69
52797;BME280;38666;43.348;12.584;2023-02-22T10:52:01;95880.09;;;15.53;52.99
52797;BME280;38666;43.348;12.584;2023-02-22T10:54:30;95870.22;;;15.89;50.84
52797;BME280;38666;43.348;12.584;2023-02-22T10:56:58;95871.16;;;15.49;50.87
52797;BME280;38666;43.348;12.584;2023-02-22T10:59:34;95869.25;;;15.62;49.45
52797;BME280;38666;43.348;12.584;2023-02-22T11:02:29;95865.16;;;15.17;50.89
52797;BME280;38666;43.348;12.584;2023-02-22T11:04:56;95860.50;;;14.73;52.20
52797;BME280;38666;43.348;12.584;2023-02-22T11:07:28;95849.22;;;14.67;52.06
52797;BME280;38666;43.348;12.584;2023-02-22T11:09:59;95849.59;;;14.49;53.33
52797;BME280;38666;43.348;12.584;2023-02-22T11:12:31;95849.53;;;13.84;55.31
52797;BME280;38666;43.348;12.584;2023-02-22T11:17:49;95850.97;;;13.69;54.51
52797;BME280;38666;43.348;12.584;2023-02-22T11:20:32;95839.78;;;13.28;56.16
52797;BME280;38666;43.348;12.584;2023-02-22T11:23:01;95834.84;;;13.71;55.59
52797;BME280;38666;43.348;12.584;2023-02-22T11:25:33;95831.53;;;13.83;54.03
52797;BME280;38666;43.348;12.584;2023-02-22T11:28:16;95823.19;;;13.87;54.23
52797;BME280;38666;43.348;12.584;2023-02-22T11:30:45;95824.72;;;13.92;53.96
52797;BME280;38666;43.348;12.584;2023-02-22T11:38:27;95819.47;;;14.01;53.30
52797;BME280;38666;43.348;12.584;2023-02-22T11:41:20;95814.31;;;13.79;53.77
52797;BME280;38666;43.348;12.584;2023-02-22T11:43:51;95813.22;;;14.62;51.53
52797;BME280;38666;43.348;12.584;2023-02-22T11:48:58;95801.31;;;14.68;50.77
52797;BME280;38666;43.348;12.584;2023-02-22T11:54:20;95797.78;;;15.25;46.99
52797;BME280;38666;43.348;12.584;2023-02-22T11:57:21;95796.50;;;14.73;46.54
52797;BME280;38666;43.348;12.584;2023-02-22T12:05:41;95791.66;;;14.40;49.01
52797;BME280;38666;43.348;12.584;2023-02-22T12:08:28;95794.34;;;14.23;49.05
52797;BME280;38666;43.348;12.584;2023-02-22T12:21:52;95776.84;;;13.93;51.13
52797;BME280;38666;43.348;12.584;2023-02-22T12:24:22;95776.72;;;13.52;52.25
52797;BME280;38666;43.348;12.584;2023-02-22T12:27:06;95777.78;;;14.06;52.21
52797;BME280;38666;43.348;12.584;2023-02-22T12:29:42;95776.03;;;14.37;51.51
52797;BME280;38666;43.348;12.584;2023-02-22T12:34:55;95766.41;;;14.86;49.31
52797;BME280;38666;43.348;12.584;2023-02-22T12:37:29;95762.84;;;15.06;48.84
52797;BME280;38666;43.348;12.584;2023-02-22T12:45:16;95760.66;;;14.60;49.19
52797;BME280;38666;43.348;12.584;2023-02-22T12:47:48;95762.56;;;14.42;49.89
52797;BME280;38666;43.348;12.584;2023-02-22T12:50:22;95767.97;;;14.05;50.31
52797;BME280;38666;43.348;12.584;2023-02-22T12:53:27;95759.78;;;13.57;52.04
52797;BME280;38666;43.348;12.584;2023-02-22T12:56:30;95762.75;;;13.43;52.30
52797;BME280;38666;43.348;12.584;2023-02-22T12:59:40;95761.75;;;13.05;53.58
52797;BME280;38666;43.348;12.584;2023-02-22T13:02:30;95763.31;;;13.06;52.58
52797;BME280;38666;43.348;12.584;2023-02-22T13:05:00;95765.22;;;13.09;52.65
52797;BME280;38666;43.348;12.584;2023-02-22T13:13:32;95763.47;;;12.68;55.46
52797;BME280;38666;43.348;12.584;2023-02-22T13:16:14;95754.97;;;12.58;55.84
52797;BME280;38666;43.348;12.584;2023-02-22T13:19:05;95752.03;;;12.73;55.38
52797;BME280;38666;43.348;12.584;2023-02-22T13:21:48;95752.69;;;12.53;56.43
52797;BME280;38666;43.348;12.584;2023-02-22T13:26:57;95755.28;;;12.64;56.50
52797;BME280;38666;43.348;12.584;2023-02-22T13:29:33;95760.38;;;12.31;57.00
52797;BME280;38666;43.348;12.584;2023-02-22T13:32:23;95749.94;;;12.53;56.49
52797;BME280;38666;43.348;12.584;2023-02-22T13:35:00;95747.31;;;12.73;56.44
52797;BME280;38666;43.348;12.584;2023-02-22T13:37:49;95742.44;;;12.57;56.85
52797;BME280;38666;43.348;12.584;2023-02-22T13:51:49;95753.38;;;12.26;60.12
52797;BME280;38666;43.348;12.584;2023-02-22T13:54:21;95756.00;;;12.37;59.51
52797;BME280;38666;43.348;12.584;2023-02-22T13:56:49;95759.66;;;12.26;60.15
52797;BME280;38666;43.348;12.584;2023-02-22T13:59:27;95757.28;;;12.28;61.10
52797;BME280;38666;43.348;12.584;2023-02-22T14:01:53;95756.66;;;12.13;62.02
52797;BME280;38666;43.348;12.584;2023-02-22T14:06:44;95761.47;;;12.37;58.14
52797;BME280;38666;43.348;12.584;2023-02-22T14:09:55;95753.94;;;12.45;56.82
52797;BME280;38666;43.348;12.584;2023-02-22T14:17:36;95759.06;;;12.04;58.52
52797;BME280;38666;43.348;12.584;2023-02-22T14:22:45;95746.50;;;12.14;58.69
52797;BME280;38666;43.348;12.584;2023-02-22T14:25:43;95753.00;;;12.24;58.52
52797;BME280;38666;43.348;12.584;2023-02-22T14:36:35;95747.16;;;12.22;59.02
52797;BME280;38666;43.348;12.584;2023-02-22T14:41:57;95747.09;;;12.29;57.96
52797;BME280;38666;43.348;12.584;2023-02-22T14:44:31;95747.41;;;12.00;59.42
52797;BME280;38666;43.348;12.584;2023-02-22T14:46:58;95743.09;;;11.99;59.92
52797;BME280;38666;43.348;12.584;2023-02-22T14:49:32;95752.88;;;12.00;60.86
52797;BME280;38666;43.348;12.584;2023-02-22T14:52:06;95754.22;;;12.23;60.15
52797;BME280;38666;43.348;12.584;2023-02-22T14:55:05;95748.75;;;12.23;59.77
52797;BME280;38666;43.348;12.584;2023-02-22T15:00:48;95750.81;;;12.11;60.56
52797;BME280;38666;43.348;12.584;2023-02-22T15:03:30;95741.94;;;12.00;60.90
52797;BME280;38666;43.348;12.584;2023-02-22T15:06:04;95739.69;;;11.91;61.80
52797;BME280;38666;43.348;12.584;2023-02-22T15:08:30;95751.31;;;11.99;61.21
52797;BME280;38666;43.348;12.584;2023-02-22T15:10:58;95740.81;;;11.94;61.22
52797;BME280;38666;43.348;12.584;2023-02-22T15:13:28;95737.13;;;12.08;61.72
52797;BME280;38666;43.348;12.584;2023-02-22T15:15:59;95742.47;;;12.22;60.88
52797;BME280;38666;43.348;12.584;2023-02-22T15:18:47;95744.19;;;12.09;61.08
52797;BME280;38666;43.348;12.584;2023-02-22T15:21:23;95748.31;;;11.86;62.41
52797;BME280;38666;43.348;12.584;2023-02-22T15:23:54;95749.53;;;11.81;62.05
52797;BME280;38666;43.348;12.584;2023-02-22T15:26:28;95743.00;;;11.71;62.45
52797;BME280;38666;43.348;12.584;2023-02-22T15:28:58;95748.47;;;11.71;63.29
52797;BME280;38666;43.348;12.584;2023-02-22T15:31:32;95738.81;;;11.98;61.91
52797;BME280;38666;43.348;12.584;2023-02-22T15:34:19;95734.75;;;11.75;63.14
52797;BME280;38666;43.348;12.584;2023-02-22T15:36:47;95734.69;;;11.82;62.95
52797;BME280;38666;43.348;12.584;2023-02-22T15:39:26;95730.44;;;11.74;63.63
52797;BME280;38666;43.348;12.584;2023-02-22T15:42:19;95729.94;;;11.44;65.17
52797;BME280;38666;43.348;12.584;2023-02-22T15:44:53;95731.84;;;11.51;64.83
52797;BME280;38666;43.348;12.584;2023-02-22T15:47:29;95727.50;;;11.57;64.86
52797;BME280;38666;43.348;12.584;2023-02-22T15:50:18;95730.19;;;11.61;65.09
52797;BME280;38666;43.348;12.584;2023-02-22T15:53:05;95724.38;;;11.55;64.97
52797;BME280;38666;43.348;12.584;2023-02-22T15:55:42;95726.44;;;11.43;65.03
52797;BME280;38666;43.348;12.584;2023-02-22T15:58:18;95724.84;;;11.46;65.45
52797;BME280;38666;43.348;12.584;2023-02-22T16:00:59;95718.22;;;11.43;65.90
52797;BME280;38666;43.348;12.584;2023-02-22T16:03:30;95726.38;;;11.51;65.52
52797;BME280;38666;43.348;12.584;2023-02-22T16:06:00;95724.41;;;11.51;65.45
52797;BME280;38666;43.348;12.584;2023-02-22T16:08:38;95726.44;;;11.43;65.83
52797;BME280;38666;43.348;12.584;2023-02-22T16:11:10;95717.94;;;11.34;66.51
52797;BME280;38666;43.348;12.584;2023-02-22T16:13:40;95724.19;;;11.31;66.45
52797;BME280;38666;43.348;12.584;2023-02-22T16:16:26;95719.19;;;11.22;67.20
52797;BME280;38666;43.348;12.584;2023-02-22T16:19:58;95713.66;;;11.29;67.15
52797;BME280;38666;43.348;12.584;2023-02-22T16:22:01;95712.56;;;11.23;67.84
52797;BME280;38666;43.348;12.584;2023-02-22T16:24:32;95713.88;;;11.04;68.69
52797;BME280;38666;43.348;12.584;2023-02-22T16:27:04;95716.94;;;11.10;68.90
52797;BME280;38666;43.348;12.584;2023-02-22T16:29:30;95711.41;;;11.17;68.35
52797;BME280;38666;43.348;12.584;2023-02-22T16:31:56;95717.78;;;11.03;69.41
52797;BME280;38666;43.348;12.584;2023-02-22T16:34:21;95710.38;;;11.00;69.49
52797;BME280;38666;43.348;12.584;2023-02-22T16:36:48;95714.66;;;11.01;69.66
52797;BME280;38666;43.348;12.584;2023-02-22T16:41:52;95724.91;;;10.89;70.18
52797;BME280;38666;43.348;12.584;2023-02-22T16:44:19;95721.78;;;10.87;70.43
52797;BME280;38666;43.348;12.584;2023-02-22T16:46:45;95715.59;;;10.79;71.39
52797;BME280;38666;43.348;12.584;2023-02-22T16:49:11;95726.09;;;10.84;71.29
52797;BME280;38666;43.348;12.584;2023-02-22T16:51:46;95722.22;;;10.82;71.38
52797;BME280;38666;43.348;12.584;2023-02-22T16:54:25;95728.09;;;10.80;71.36
52797;BME280;38666;43.348;12.584;2023-02-22T16:56:53;95723.81;;;10.76;71.23
52797;BME280;38666;43.348;12.584;2023-02-22T16:59:19;95729.28;;;10.76;71.20
52797;BME280;38666;43.348;12.584;2023-02-22T17:01:45;95732.00;;;10.76;71.50
52797;BME280;38666;43.348;12.584;2023-02-22T17:04:16;95736.31;;;10.73;71.37
52797;BME280;38666;43.348;12.584;2023-02-22T17:06:42;95736.72;;;10.75;71.46
52797;BME280;38666;43.348;12.584;2023-02-22T17:09:08;95738.63;;;10.78;71.68
52797;BME280;38666;43.348;12.584;2023-02-22T17:11:35;95735.53;;;10.73;71.68
52797;BME280;38666;43.348;12.584;2023-02-22T17:14:01;95744.97;;;10.64;72.34
52797;BME280;38666;43.348;12.584;2023-02-22T17:16:26;95743.38;;;10.63;72.81
52797;BME280;38666;43.348;12.584;2023-02-22T17:18:52;95750.03;;;10.66;72.89
52797;BME280;38666;43.348;12.584;2023-02-22T17:21:18;95752.34;;;10.67;73.07
52797;BME280;38666;43.348;12.584;2023-02-22T17:23:43;95749.63;;;10.64;73.17
52797;BME280;38666;43.348;12.584;2023-02-22T17:26:13;95758.66;;;10.57;73.18
52797;BME280;38666;43.348;12.584;2023-02-22T17:28:39;95756.31;;;10.55;72.99
52797;BME280;38666;43.348;12.584;2023-02-22T17:31:06;95752.81;;;10.55;72.88
52797;BME280;38666;43.348;12.584;2023-02-22T17:33:33;95750.84;;;10.55;73.04
52797;BME280;38666;43.348;12.584;2023-02-22T17:36:00;95749.69;;;10.53;73.63
52797;BME280;38666;43.348;12.584;2023-02-22T17:38:28;95747.72;;;10.57;74.00
52797;BME280;38666;43.348;12.584;2023-02-22T17:40:55;95760.97;;;10.62;73.53
52797;BME280;38666;43.348;12.584;2023-02-22T17:43:21;95754.00;;;10.54;74.06
52797;BME280;38666;43.348;12.584;2023-02-22T17:45:47;95756.34;;;10.48;74.79
52797;BME280;38666;43.348;12.584;2023-02-22T17:48:15;95754.00;;;10.50;74.87
52797;BME280;38666;43.348;12.584;2023-02-22T17:50:43;95755.56;;;10.47;74.91
52797;BME280;38666;43.348;12.584;2023-02-22T17:53:10;95753.22;;;10.50;74.87
52797;BME280;38666;43.348;12.584;2023-02-22T17:55:37;95752.81;;;10.55;74.77
52797;BME280;38666;43.348;12.584;2023-02-22T17:58:04;95750.06;;;10.55;75.09
52797;BME280;38666;43.348;12.584;2023-02-22T18:00:33;95752.41;;;10.53;75.04
52797;BME280;38666;43.348;12.584;2023-02-22T18:03:05;95750.06;;;10.55;74.54
52797;BME280;38666;43.348;12.584;2023-02-22T18:05:32;95752.81;;;10.55;74.61
52797;BME280;38666;43.348;12.584;2023-02-22T18:07:58;95747.72;;;10.57;74.50
52797;BME280;38666;43.348;12.584;2023-02-22T18:10:24;95744.59;;;10.55;74.62
52797;BME280;38666;43.348;12.584;2023-02-22T18:12:51;95748.94;;;10.49;74.85
52797;BME280;38666;43.348;12.584;2023-02-22T18:15:18;95753.22;;;10.50;75.45
52797;BME280;38666;43.348;12.584;2023-02-22T18:17:44;95747.75;;;10.50;75.38
52797;BME280;38666;43.348;12.584;2023-02-22T18:20:11;95746.97;;;10.45;75.91
52797;BME280;38666;43.348;12.584;2023-02-22T18:22:43;95746.19;;;10.45;76.04
52797;BME280;38666;43.348;12.584;2023-02-22T18:25:11;95749.72;;;10.38;75.98
52797;BME280;38666;43.348;12.584;2023-02-22T18:27:39;95740.75;;;10.41;75.69
52797;BME280;38666;43.348;12.584;2023-02-22T18:30:08;95742.28;;;10.46;75.62
52797;BME280;38666;43.348;12.584;2023-02-22T18:32:34;95740.75;;;10.49;75.38
52797;BME280;38666;43.348;12.584;2023-02-22T18:35:00;95743.88;;;10.43;75.68
52797;BME280;38666;43.348;12.584;2023-02-22T18:37:26;95739.56;;;10.42;75.14
52797;BME280;38666;43.348;12.584;2023-02-22T18:39:56;95739.56;;;10.46;75.01
52797;BME280;38666;43.348;12.584;2023-02-22T18:42:23;95732.94;;;10.43;74.88
52797;BME280;38666;43.348;12.584;2023-02-22T18:44:49;95733.31;;;10.42;75.35
52797;BME280;38666;43.348;12.584;2023-02-22T18:47:15;95731.00;;;10.40;75.58
52797;BME280;38666;43.348;12.584;2023-02-22T18:49:41;95732.94;;;10.43;75.43
